sensor_id;sensor_type;location;lat;lon;timestamp;temperature;humidity
32476;DHT22;18929;48.008;10.882;2023-07-20T00:02:19;27.30;85.80
32476;DHT22;18929;48.008;10.882;2023-07-20T00:04:45;27.30;84.60
32476;DHT22;18929;48.008;10.882;2023-07-20T00:07:12;27.10;86.00
32476;DHT22;18929;48.008;10.882;2023-07-20T00:09:46;27.20;85.80
32476;DHT22;18929;48.008;10.882;2023-07-20T00:12:13;27.00;86.20
32476;DHT22;18929;48.008;10.882;2023-07-20T00:14:42;27.00;86.20
32476;DHT22;18929;48.008;10.882;2023-07-20T00:17:08;26.20;87.90
32476;DHT22;18929;48.008;10.882;2023-07-20T00:19:35;26.70;86.60
32476;DHT22;18929;48.008;10.882;2023-07-20T00:22:02;26.90;86.20
32476;DHT22;18929;48.008;10.882;2023-07-20T00:24:30;27.00;85.70
32476;DHT22;18929;48.008;10.882;2023-07-20T00:26:58;27.00;85.50
32476;DHT22;18929;48.008;10.882;2023-07-20T00:29:26;27.10;85.40
32476;DHT22;18929;48.008;10.882;2023-07-20T00:31:54;27.00;85.30
32476;DHT22;18929;48.008;10.882;2023-07-20T00:34:21;27.00;85.40
32476;DHT22;18929;48.008;10.882;2023-07-20T00:36:48;26.90;85.70
32476;DHT22;18929;48.008;10.882;2023-07-20T00:39:17;27.00;85.50
32476;DHT22;18929;48.008;10.882;2023-07-20T00:41:44;26.90;84.60
32476;DHT22;18929;48.008;10.882;2023-07-20T00:44:11;27.10;85.30
32476;DHT22;18929;48.008;10.882;2023-07-20T00:46:37;27.10;85.10
32476;DHT22;18929;48.008;10.882;2023-07-20T00:49:06;27.00;85.40
32476;DHT22;18929;48.008;10.882;2023-07-20T00:51:33;26.90;85.30
32476;DHT22;18929;48.008;10.882;2023-07-20T00:53:59;26.90;85.30
32476;DHT22;18929;48.008;10.882;2023-07-20T00:56:26;27.00;85.30
32476;DHT22;18929;48.008;10.882;2023-07-20T00:58:53;27.00;85.30
32476;DHT22;18929;48.008;10.882;2023-07-20T01:01:21;26.90;85.40
32476;DHT22;18929;48.008;10.882;2023-07-20T01:03:48;26.90;85.40
32476;DHT22;18929;48.008;10.882;2023-07-20T01:06:18;26.80;85.50
32476;DHT22;18929;48.008;10.882;2023-07-20T01:08:51;26.70;85.70
32476;DHT22;18929;48.008;10.882;2023-07-20T01:11:22;26.70;85.90
32476;DHT22;18929;48.008;10.882;2023-07-20T01:13:49;26.70;86.00
32476;DHT22;18929;48.008;10.882;2023-07-20T01:16:16;26.70;86.00
32476;DHT22;18929;48.008;10.882;2023-07-20T01:18:43;26.60;86.10
32476;DHT22;18929;48.008;10.882;2023-07-20T01:21:12;26.50;86.30
32476;DHT22;18929;48.008;10.882;2023-07-20T01:23:50;26.50;86.50
32476;DHT22;18929;48.008;10.882;2023-07-20T01:31:47;26.30;86.90
32476;DHT22;18929;48.008;10.882;2023-07-20T01:34:16;26.40;87.10
32476;DHT22;18929;48.008;10.882;2023-07-20T01:36:44;26.30;87.80
32476;DHT22;18929;48.008;10.882;2023-07-20T01:39:11;26.30;87.20
32476;DHT22;18929;48.008;10.882;2023-07-20T01:41:38;26.30;87.20
32476;DHT22;18929;48.008;10.882;2023-07-20T01:44:05;26.30;87.10
32476;DHT22;18929;48.008;10.882;2023-07-20T01:46:32;26.20;87.40
32476;DHT22;18929;48.008;10.882;2023-07-20T01:49:00;26.20;87.10
32476;DHT22;18929;48.008;10.882;2023-07-20T01:51:27;26.30;87.00
32476;DHT22;18929;48.008;10.882;2023-07-20T01:53:54;26.20;87.20
32476;DHT22;18929;48.008;10.882;2023-07-20T01:56:21;26.10;87.60
32476;DHT22;18929;48.008;10.882;2023-07-20T01:58:47;26.00;87.80
32476;DHT22;18929;48.008;10.882;2023-07-20T02:01:14;26.00;87.80
32476;DHT22;18929;48.008;10.882;2023-07-20T02:03:41;26.00;87.50
32476;DHT22;18929;48.008;10.882;2023-07-20T02:06:09;26.00;87.70
32476;DHT22;18929;48.008;10.882;2023-07-20T02:08:36;26.00;87.80
32476;DHT22;18929;48.008;10.882;2023-07-20T02:11:03;26.00;87.60
32476;DHT22;18929;48.008;10.882;2023-07-20T02:13:30;25.90;87.90
32476;DHT22;18929;48.008;10.882;2023-07-20T02:15:57;25.70;88.30
32476;DHT22;18929;48.008;10.882;2023-07-20T02:18:24;25.30;87.70
32476;DHT22;18929;48.008;10.882;2023-07-20T02:20:52;25.50;88.30
32476;DHT22;18929;48.008;10.882;2023-07-20T02:23:20;25.60;88.20
32476;DHT22;18929;48.008;10.882;2023-07-20T02:25:47;25.80;88.00
32476;DHT22;18929;48.008;10.882;2023-07-20T02:28:14;25.70;87.70
32476;DHT22;18929;48.008;10.882;2023-07-20T02:30:41;25.50;88.50
32476;DHT22;18929;48.008;10.882;2023-07-20T02:33:08;25.20;88.90
32476;DHT22;18929;48.008;10.882;2023-07-20T02:35:35;25.60;88.30
32476;DHT22;18929;48.008;10.882;2023-07-20T02:38:02;25.70;88.00
32476;DHT22;18929;48.008;10.882;2023-07-20T02:40:30;25.40;88.30
32476;DHT22;18929;48.008;10.882;2023-07-20T02:42:56;25.50;88.50
32476;DHT22;18929;48.008;10.882;2023-07-20T02:45:23;25.30;89.60
32476;DHT22;18929;48.008;10.882;2023-07-20T02:50:21;23.20;90.80
32476;DHT22;18929;48.008;10.882;2023-07-20T02:52:48;24.20;90.80
32476;DHT22;18929;48.008;10.882;2023-07-20T02:55:15;24.20;90.80
32476;DHT22;18929;48.008;10.882;2023-07-20T02:57:43;24.80;90.20
32476;DHT22;18929;48.008;10.882;2023-07-20T03:00:11;24.70;90.20
32476;DHT22;18929;48.008;10.882;2023-07-20T03:02:40;25.00;90.00
32476;DHT22;18929;48.008;10.882;2023-07-20T03:05:08;23.70;90.40
32476;DHT22;18929;48.008;10.882;2023-07-20T03:07:35;23.70;91.10
32476;DHT22;18929;48.008;10.882;2023-07-20T03:10:02;24.40;90.80
32476;DHT22;18929;48.008;10.882;2023-07-20T03:12:29;23.90;91.40
32476;DHT22;18929;48.008;10.882;2023-07-20T03:14:57;23.50;91.70
32476;DHT22;18929;48.008;10.882;2023-07-20T03:17:24;23.90;91.50
32476;DHT22;18929;48.008;10.882;2023-07-20T03:19:51;24.50;90.80
32476;DHT22;18929;48.008;10.882;2023-07-20T03:22:17;24.80;90.50
32476;DHT22;18929;48.008;10.882;2023-07-20T03:24:44;24.50;90.80
32476;DHT22;18929;48.008;10.882;2023-07-20T03:27:11;24.80;90.40
32476;DHT22;18929;48.008;10.882;2023-07-20T03:29:38;24.90;90.20
32476;DHT22;18929;48.008;10.882;2023-07-20T03:32:07;25.00;90.00
32476;DHT22;18929;48.008;10.882;2023-07-20T03:34:33;25.10;90.00
32476;DHT22;18929;48.008;10.882;2023-07-20T03:37:00;24.00;90.80
32476;DHT22;18929;48.008;10.882;2023-07-20T03:42:06;24.70;90.60
32476;DHT22;18929;48.008;10.882;2023-07-20T03:44:33;24.80;90.50
32476;DHT22;18929;48.008;10.882;2023-07-20T03:47:00;24.90;90.50
32476;DHT22;18929;48.008;10.882;2023-07-20T03:49:30;24.70;90.60
32476;DHT22;18929;48.008;10.882;2023-07-20T03:51:57;24.60;90.70
32476;DHT22;18929;48.008;10.882;2023-07-20T03:54:23;24.50;90.70
32476;DHT22;18929;48.008;10.882;2023-07-20T03:59:36;24.90;90.30
32476;DHT22;18929;48.008;10.882;2023-07-20T04:02:03;24.90;90.30
32476;DHT22;18929;48.008;10.882;2023-07-20T04:04:32;24.70;90.40
32476;DHT22;18929;48.008;10.882;2023-07-20T04:07:02;24.70;90.50
32476;DHT22;18929;48.008;10.882;2023-07-20T04:09:31;24.70;90.60
32476;DHT22;18929;48.008;10.882;2023-07-20T04:11:58;24.50;90.80
32476;DHT22;18929;48.008;10.882;2023-07-20T04:14:25;24.20;91.00
32476;DHT22;18929;48.008;10.882;2023-07-20T04:16:52;23.50;91.80
32476;DHT22;18929;48.008;10.882;2023-07-20T04:19:18;23.80;91.40
32476;DHT22;18929;48.008;10.882;2023-07-20T04:24:36;24.10;90.90
32476;DHT22;18929;48.008;10.882;2023-07-20T04:27:03;24.30;90.70
32476;DHT22;18929;48.008;10.882;2023-07-20T04:29:30;24.40;90.50
32476;DHT22;18929;48.008;10.882;2023-07-20T04:31:57;23.30;88.50
32476;DHT22;18929;48.008;10.882;2023-07-20T04:34:24;23.70;91.10
32476;DHT22;18929;48.008;10.882;2023-07-20T04:36:50;24.20;90.60
32476;DHT22;18929;48.008;10.882;2023-07-20T04:41:50;24.50;90.20
32476;DHT22;18929;48.008;10.882;2023-07-20T04:44:19;24.60;90.10
32476;DHT22;18929;48.008;10.882;2023-07-20T04:46:46;24.50;90.10
32476;DHT22;18929;48.008;10.882;2023-07-20T04:49:13;24.50;90.10
32476;DHT22;18929;48.008;10.882;2023-07-20T04:51:39;24.50;90.10
32476;DHT22;18929;48.008;10.882;2023-07-20T04:54:06;24.50;90.10
32476;DHT22;18929;48.008;10.882;2023-07-20T04:56:33;24.30;90.20
32476;DHT22;18929;48.008;10.882;2023-07-20T04:59:01;23.60;91.20
32476;DHT22;18929;48.008;10.882;2023-07-20T05:01:28;23.90;90.90
32476;DHT22;18929;48.008;10.882;2023-07-20T05:03:55;23.90;90.90
32476;DHT22;18929;48.008;10.882;2023-07-20T05:06:22;23.80;90.30
32476;DHT22;18929;48.008;10.882;2023-07-20T05:08:48;24.00;90.70
32476;DHT22;18929;48.008;10.882;2023-07-20T05:11:15;23.80;88.90
32476;DHT22;18929;48.008;10.882;2023-07-20T05:13:43;23.40;90.10
32476;DHT22;18929;48.008;10.882;2023-07-20T05:16:12;23.00;90.00
32476;DHT22;18929;48.008;10.882;2023-07-20T05:18:38;23.40;89.80
32476;DHT22;18929;48.008;10.882;2023-07-20T05:21:05;23.10;91.10
32476;DHT22;18929;48.008;10.882;2023-07-20T05:23:32;23.50;90.90
32476;DHT22;18929;48.008;10.882;2023-07-20T05:25:59;23.50;87.10
32476;DHT22;18929;48.008;10.882;2023-07-20T05:28:26;23.80;90.40
32476;DHT22;18929;48.008;10.882;2023-07-20T05:30:53;23.30;90.60
32476;DHT22;18929;48.008;10.882;2023-07-20T05:33:21;23.50;90.40
32476;DHT22;18929;48.008;10.882;2023-07-20T05:35:55;23.50;90.30
32476;DHT22;18929;48.008;10.882;2023-07-20T05:38:22;23.40;90.20
32476;DHT22;18929;48.008;10.882;2023-07-20T05:40:48;23.80;87.70
32476;DHT22;18929;48.008;10.882;2023-07-20T05:43:15;24.10;88.60
32476;DHT22;18929;48.008;10.882;2023-07-20T05:45:42;23.00;90.40
32476;DHT22;18929;48.008;10.882;2023-07-20T05:48:10;23.40;90.10
32476;DHT22;18929;48.008;10.882;2023-07-20T05:50:41;23.00;87.80
32476;DHT22;18929;48.008;10.882;2023-07-20T05:56:25;23.10;89.80
32476;DHT22;18929;48.008;10.882;2023-07-20T05:58:52;23.60;89.30
32476;DHT22;18929;48.008;10.882;2023-07-20T06:04:22;23.60;89.30
32476;DHT22;18929;48.008;10.882;2023-07-20T06:06:51;23.60;89.30
32476;DHT22;18929;48.008;10.882;2023-07-20T06:09:17;23.60;89.20
32476;DHT22;18929;48.008;10.882;2023-07-20T06:11:44;23.30;88.10
32476;DHT22;18929;48.008;10.882;2023-07-20T06:14:11;23.40;89.60
32476;DHT22;18929;48.008;10.882;2023-07-20T06:16:38;23.40;89.70
32476;DHT22;18929;48.008;10.882;2023-07-20T06:19:05;23.40;86.10
32476;DHT22;18929;48.008;10.882;2023-07-20T06:21:32;22.80;90.40
32476;DHT22;18929;48.008;10.882;2023-07-20T06:24:01;23.30;89.90
32476;DHT22;18929;48.008;10.882;2023-07-20T06:26:28;22.00;87.40
32476;DHT22;18929;48.008;10.882;2023-07-20T06:28:55;22.10;91.60
32476;DHT22;18929;48.008;10.882;2023-07-20T06:31:22;22.50;86.80
32476;DHT22;18929;48.008;10.882;2023-07-20T06:33:49;23.10;89.10
32476;DHT22;18929;48.008;10.882;2023-07-20T06:36:18;23.00;87.10
32476;DHT22;18929;48.008;10.882;2023-07-20T06:38:46;22.30;88.90
32476;DHT22;18929;48.008;10.882;2023-07-20T06:41:14;23.30;89.40
32476;DHT22;18929;48.008;10.882;2023-07-20T06:43:40;22.70;87.90
32476;DHT22;18929;48.008;10.882;2023-07-20T06:46:07;22.70;89.60
32476;DHT22;18929;48.008;10.882;2023-07-20T06:48:34;22.50;89.40
32476;DHT22;18929;48.008;10.882;2023-07-20T06:51:01;22.00;87.50
32476;DHT22;18929;48.008;10.882;2023-07-20T06:56:18;22.50;88.50
32476;DHT22;18929;48.008;10.882;2023-07-20T06:58:46;21.30;90.40
32476;DHT22;18929;48.008;10.882;2023-07-20T07:01:13;21.20;91.10
32476;DHT22;18929;48.008;10.882;2023-07-20T07:03:40;21.50;91.10
32476;DHT22;18929;48.008;10.882;2023-07-20T07:06:07;21.70;91.70
32476;DHT22;18929;48.008;10.882;2023-07-20T07:08:42;21.30;90.90
32476;DHT22;18929;48.008;10.882;2023-07-20T07:11:10;22.30;90.30
32476;DHT22;18929;48.008;10.882;2023-07-20T07:13:40;22.50;90.80
32476;DHT22;18929;48.008;10.882;2023-07-20T07:16:07;22.60;90.70
32476;DHT22;18929;48.008;10.882;2023-07-20T07:18:34;22.60;90.70
32476;DHT22;18929;48.008;10.882;2023-07-20T07:23:38;21.20;91.70
32476;DHT22;18929;48.008;10.882;2023-07-20T07:26:05;21.20;92.20
32476;DHT22;18929;48.008;10.882;2023-07-20T07:28:32;22.00;91.30
32476;DHT22;18929;48.008;10.882;2023-07-20T07:31:00;22.60;90.80
32476;DHT22;18929;48.008;10.882;2023-07-20T07:33:27;23.00;90.30
32476;DHT22;18929;48.008;10.882;2023-07-20T07:38:53;23.20;89.60
32476;DHT22;18929;48.008;10.882;2023-07-20T07:41:20;23.10;88.80
32476;DHT22;18929;48.008;10.882;2023-07-20T07:43:48;23.00;90.00
32476;DHT22;18929;48.008;10.882;2023-07-20T07:46:16;23.00;89.60
32476;DHT22;18929;48.008;10.882;2023-07-20T07:48:43;23.00;89.00
32476;DHT22;18929;48.008;10.882;2023-07-20T07:51:09;22.60;84.30
32476;DHT22;18929;48.008;10.882;2023-07-20T07:53:37;22.70;87.40
32476;DHT22;18929;48.008;10.882;2023-07-20T07:56:06;22.80;89.50
32476;DHT22;18929;48.008;10.882;2023-07-20T07:58:33;23.00;88.60
32476;DHT22;18929;48.008;10.882;2023-07-20T08:01:01;23.30;87.80
32476;DHT22;18929;48.008;10.882;2023-07-20T08:06:23;22.50;87.70
32476;DHT22;18929;48.008;10.882;2023-07-20T08:08:51;23.20;88.90
32476;DHT22;18929;48.008;10.882;2023-07-20T08:11:21;23.10;84.80
32476;DHT22;18929;48.008;10.882;2023-07-20T08:13:47;23.40;87.80
32476;DHT22;18929;48.008;10.882;2023-07-20T08:19:01;23.60;86.80
32476;DHT22;18929;48.008;10.882;2023-07-20T08:21:29;23.20;85.20
32476;DHT22;18929;48.008;10.882;2023-07-20T08:26:57;23.20;87.30
32476;DHT22;18929;48.008;10.882;2023-07-20T08:29:23;23.10;86.20
32476;DHT22;18929;48.008;10.882;2023-07-20T08:31:50;23.00;85.70
32476;DHT22;18929;48.008;10.882;2023-07-20T08:34:17;22.70;87.30
32476;DHT22;18929;48.008;10.882;2023-07-20T08:36:45;22.90;88.50
32476;DHT22;18929;48.008;10.882;2023-07-20T08:39:12;23.00;87.60
32476;DHT22;18929;48.008;10.882;2023-07-20T08:41:48;23.10;87.70
32476;DHT22;18929;48.008;10.882;2023-07-20T08:44:27;22.60;86.30
32476;DHT22;18929;48.008;10.882;2023-07-20T08:46:56;23.10;86.80
32476;DHT22;18929;48.008;10.882;2023-07-20T08:49:23;22.20;86.20
32476;DHT22;18929;48.008;10.882;2023-07-20T08:54:36;22.20;84.80
32476;DHT22;18929;48.008;10.882;2023-07-20T08:57:09;23.30;87.90
32476;DHT22;18929;48.008;10.882;2023-07-20T08:59:38;23.60;87.00
32476;DHT22;18929;48.008;10.882;2023-07-20T09:05:08;23.70;86.60
32476;DHT22;18929;48.008;10.882;2023-07-20T09:07:44;23.60;86.70
32476;DHT22;18929;48.008;10.882;2023-07-20T09:10:13;23.40;84.60
32476;DHT22;18929;48.008;10.882;2023-07-20T09:12:41;23.40;86.40
32476;DHT22;18929;48.008;10.882;2023-07-20T09:15:09;23.50;86.90
32476;DHT22;18929;48.008;10.882;2023-07-20T09:17:51;23.40;87.60
32476;DHT22;18929;48.008;10.882;2023-07-20T09:20:19;22.40;86.10
32476;DHT22;18929;48.008;10.882;2023-07-20T09:22:46;21.90;89.50
32476;DHT22;18929;48.008;10.882;2023-07-20T09:25:17;23.00;88.00
32476;DHT22;18929;48.008;10.882;2023-07-20T09:27:45;23.40;86.60
32476;DHT22;18929;48.008;10.882;2023-07-20T09:30:13;23.60;87.50
32476;DHT22;18929;48.008;10.882;2023-07-20T09:32:40;23.30;84.60
32476;DHT22;18929;48.008;10.882;2023-07-20T09:35:14;22.50;89.70
32476;DHT22;18929;48.008;10.882;2023-07-20T09:40:38;23.00;89.10
32476;DHT22;18929;48.008;10.882;2023-07-20T09:43:07;23.40;88.00
32476;DHT22;18929;48.008;10.882;2023-07-20T09:45:35;23.00;88.20
32476;DHT22;18929;48.008;10.882;2023-07-20T09:48:05;22.90;87.20
32476;DHT22;18929;48.008;10.882;2023-07-20T09:50:32;23.10;86.10
32476;DHT22;18929;48.008;10.882;2023-07-20T09:53:00;23.10;88.70
32476;DHT22;18929;48.008;10.882;2023-07-20T09:55:27;23.30;86.80
32476;DHT22;18929;48.008;10.882;2023-07-20T09:57:57;23.40;87.20
32476;DHT22;18929;48.008;10.882;2023-07-20T10:00:24;23.30;86.70
32476;DHT22;18929;48.008;10.882;2023-07-20T10:02:51;23.40;86.60
32476;DHT22;18929;48.008;10.882;2023-07-20T10:05:18;23.80;87.00
32476;DHT22;18929;48.008;10.882;2023-07-20T10:07:47;23.80;86.40
32476;DHT22;18929;48.008;10.882;2023-07-20T10:10:14;23.60;87.40
32476;DHT22;18929;48.008;10.882;2023-07-20T10:12:42;23.00;85.60
32476;DHT22;18929;48.008;10.882;2023-07-20T10:15:13;23.70;87.70
32476;DHT22;18929;48.008;10.882;2023-07-20T10:17:46;23.90;87.00
32476;DHT22;18929;48.008;10.882;2023-07-20T10:20:16;23.80;87.30
32476;DHT22;18929;48.008;10.882;2023-07-20T10:22:44;23.70;87.00
32476;DHT22;18929;48.008;10.882;2023-07-20T10:25:12;23.50;85.50
32476;DHT22;18929;48.008;10.882;2023-07-20T10:30:11;24.00;86.80
32476;DHT22;18929;48.008;10.882;2023-07-20T10:32:40;23.90;87.00
32476;DHT22;18929;48.008;10.882;2023-07-20T10:35:12;24.00;86.60
32476;DHT22;18929;48.008;10.882;2023-07-20T10:40:31;24.00;87.00
32476;DHT22;18929;48.008;10.882;2023-07-20T10:42:59;23.60;86.40
32476;DHT22;18929;48.008;10.882;2023-07-20T10:48:05;23.40;88.00
32476;DHT22;18929;48.008;10.882;2023-07-20T10:50:32;23.50;88.50
32476;DHT22;18929;48.008;10.882;2023-07-20T10:53:09;23.70;88.10
32476;DHT22;18929;48.008;10.882;2023-07-20T10:55:36;23.70;88.00
32476;DHT22;18929;48.008;10.882;2023-07-20T11:00:35;24.10;87.00
32476;DHT22;18929;48.008;10.882;2023-07-20T11:03:02;24.30;86.30
32476;DHT22;18929;48.008;10.882;2023-07-20T11:05:43;24.20;86.60
32476;DHT22;18929;48.008;10.882;2023-07-20T11:08:11;23.80;84.50
32476;DHT22;18929;48.008;10.882;2023-07-20T11:10:38;23.80;86.90
32476;DHT22;18929;48.008;10.882;2023-07-20T11:16:03;22.20;89.00
32476;DHT22;18929;48.008;10.882;2023-07-20T11:18:32;22.90;89.80
32476;DHT22;18929;48.008;10.882;2023-07-20T11:21:01;23.20;89.60
32476;DHT22;18929;48.008;10.882;2023-07-20T11:23:28;23.80;88.00
32476;DHT22;18929;48.008;10.882;2023-07-20T11:25:56;24.10;85.00
32476;DHT22;18929;48.008;10.882;2023-07-20T11:28:24;23.10;88.10
32476;DHT22;18929;48.008;10.882;2023-07-20T11:30:52;23.70;87.50
32476;DHT22;18929;48.008;10.882;2023-07-20T11:33:20;23.20;88.90
32476;DHT22;18929;48.008;10.882;2023-07-20T11:35:56;22.20;89.10
32476;DHT22;18929;48.008;10.882;2023-07-20T11:38:24;22.20;91.10
32476;DHT22;18929;48.008;10.882;2023-07-20T11:40:51;23.00;90.50
32476;DHT22;18929;48.008;10.882;2023-07-20T11:43:18;22.30;90.00
32476;DHT22;18929;48.008;10.882;2023-07-20T11:45:46;22.40;90.90
32476;DHT22;18929;48.008;10.882;2023-07-20T11:48:16;22.90;89.40
32476;DHT22;18929;48.008;10.882;2023-07-20T11:50:43;23.50;89.30
32476;DHT22;18929;48.008;10.882;2023-07-20T11:53:10;24.20;88.80
32476;DHT22;18929;48.008;10.882;2023-07-20T11:55:39;24.70;86.10
32476;DHT22;18929;48.008;10.882;2023-07-20T11:58:12;24.80;87.00
32476;DHT22;18929;48.008;10.882;2023-07-20T12:00:43;23.30;87.10
32476;DHT22;18929;48.008;10.882;2023-07-20T12:03:10;23.70;90.00
32476;DHT22;18929;48.008;10.882;2023-07-20T12:05:38;24.00;88.50
32476;DHT22;18929;48.008;10.882;2023-07-20T12:08:05;23.60;88.50
32476;DHT22;18929;48.008;10.882;2023-07-20T12:10:32;23.10;90.70
32476;DHT22;18929;48.008;10.882;2023-07-20T12:13:02;24.00;89.60
32476;DHT22;18929;48.008;10.882;2023-07-20T12:15:29;24.20;87.60
32476;DHT22;18929;48.008;10.882;2023-07-20T12:18:04;23.90;87.20
32476;DHT22;18929;48.008;10.882;2023-07-20T12:20:32;24.20;88.90
32476;DHT22;18929;48.008;10.882;2023-07-20T12:22:59;24.80;86.90
32476;DHT22;18929;48.008;10.882;2023-07-20T12:25:33;24.50;84.00
32476;DHT22;18929;48.008;10.882;2023-07-20T12:28:01;24.40;87.90
32476;DHT22;18929;48.008;10.882;2023-07-20T12:30:29;25.00;86.40
32476;DHT22;18929;48.008;10.882;2023-07-20T12:32:56;24.10;84.20
32476;DHT22;18929;48.008;10.882;2023-07-20T12:35:23;23.80;86.70
32476;DHT22;18929;48.008;10.882;2023-07-20T12:37:49;24.50;88.30
32476;DHT22;18929;48.008;10.882;2023-07-20T12:40:17;24.90;84.30
32476;DHT22;18929;48.008;10.882;2023-07-20T12:42:43;25.40;85.80
32476;DHT22;18929;48.008;10.882;2023-07-20T12:45:12;25.70;84.70
32476;DHT22;18929;48.008;10.882;2023-07-20T12:47:39;25.80;84.10
32476;DHT22;18929;48.008;10.882;2023-07-20T12:50:06;25.60;83.10
32476;DHT22;18929;48.008;10.882;2023-07-20T12:52:35;25.50;84.30
32476;DHT22;18929;48.008;10.882;2023-07-20T12:55:02;24.90;83.10
32476;DHT22;18929;48.008;10.882;2023-07-20T12:57:29;25.00;81.90
32476;DHT22;18929;48.008;10.882;2023-07-20T12:59:56;25.30;83.90
32476;DHT22;18929;48.008;10.882;2023-07-20T13:02:24;25.10;82.80
32476;DHT22;18929;48.008;10.882;2023-07-20T13:04:51;24.90;85.80
32476;DHT22;18929;48.008;10.882;2023-07-20T13:07:22;24.90;84.60
32476;DHT22;18929;48.008;10.882;2023-07-20T13:09:55;25.20;84.10
32476;DHT22;18929;48.008;10.882;2023-07-20T13:12:22;25.00;83.60
32476;DHT22;18929;48.008;10.882;2023-07-20T13:14:48;25.30;85.60
32476;DHT22;18929;48.008;10.882;2023-07-20T13:17:15;25.80;84.30
32476;DHT22;18929;48.008;10.882;2023-07-20T13:19:43;25.40;81.00
32476;DHT22;18929;48.008;10.882;2023-07-20T13:22:10;24.70;83.90
32476;DHT22;18929;48.008;10.882;2023-07-20T13:24:45;24.60;85.00
32476;DHT22;18929;48.008;10.882;2023-07-20T13:27:14;24.70;85.00
32476;DHT22;18929;48.008;10.882;2023-07-20T13:29:41;25.70;85.40
32476;DHT22;18929;48.008;10.882;2023-07-20T13:32:08;25.40;83.60
32476;DHT22;18929;48.008;10.882;2023-07-20T13:34:35;25.50;82.80
32476;DHT22;18929;48.008;10.882;2023-07-20T13:37:03;25.90;83.40
32476;DHT22;18929;48.008;10.882;2023-07-20T13:39:30;25.00;85.60
32476;DHT22;18929;48.008;10.882;2023-07-20T13:41:57;25.80;80.30
32476;DHT22;18929;48.008;10.882;2023-07-20T13:44:23;25.90;80.70
32476;DHT22;18929;48.008;10.882;2023-07-20T13:46:50;26.00;82.20
32476;DHT22;18929;48.008;10.882;2023-07-20T13:49:17;25.00;85.20
32476;DHT22;18929;48.008;10.882;2023-07-20T13:51:44;25.70;84.60
32476;DHT22;18929;48.008;10.882;2023-07-20T13:54:12;25.60;80.00
32476;DHT22;18929;48.008;10.882;2023-07-20T13:59:10;26.40;83.10
32476;DHT22;18929;48.008;10.882;2023-07-20T14:01:37;26.40;82.00
32476;DHT22;18929;48.008;10.882;2023-07-20T14:04:04;26.30;81.50
32476;DHT22;18929;48.008;10.882;2023-07-20T14:06:31;26.10;82.80
32476;DHT22;18929;48.008;10.882;2023-07-20T14:08:59;26.30;83.40
32476;DHT22;18929;48.008;10.882;2023-07-20T14:11:27;26.10;77.80
32476;DHT22;18929;48.008;10.882;2023-07-20T14:13:54;26.70;79.60
32476;DHT22;18929;48.008;10.882;2023-07-20T14:16:21;26.30;81.40
32476;DHT22;18929;48.008;10.882;2023-07-20T14:18:48;27.10;80.80
32476;DHT22;18929;48.008;10.882;2023-07-20T14:21:15;25.40;78.70
32476;DHT22;18929;48.008;10.882;2023-07-20T14:23:42;26.60;81.60
32476;DHT22;18929;48.008;10.882;2023-07-20T14:26:09;27.00;76.40
32476;DHT22;18929;48.008;10.882;2023-07-20T14:28:37;26.60;76.10
32476;DHT22;18929;48.008;10.882;2023-07-20T14:31:04;26.60;81.60
32476;DHT22;18929;48.008;10.882;2023-07-20T14:33:31;26.80;76.70
32476;DHT22;18929;48.008;10.882;2023-07-20T14:35:58;26.10;78.80
32476;DHT22;18929;48.008;10.882;2023-07-20T14:38:27;26.70;79.20
32476;DHT22;18929;48.008;10.882;2023-07-20T14:40:53;27.10;80.00
32476;DHT22;18929;48.008;10.882;2023-07-20T14:43:20;27.30;77.60
32476;DHT22;18929;48.008;10.882;2023-07-20T14:45:48;27.30;75.30
32476;DHT22;18929;48.008;10.882;2023-07-20T14:48:15;27.20;77.00
32476;DHT22;18929;48.008;10.882;2023-07-20T14:50:42;27.40;75.00
32476;DHT22;18929;48.008;10.882;2023-07-20T14:53:11;27.70;76.30
32476;DHT22;18929;48.008;10.882;2023-07-20T14:55:37;27.90;78.80
32476;DHT22;18929;48.008;10.882;2023-07-20T14:58:04;26.90;79.60
32476;DHT22;18929;48.008;10.882;2023-07-20T15:00:31;27.10;76.80
32476;DHT22;18929;48.008;10.882;2023-07-20T15:02:59;26.80;79.60
32476;DHT22;18929;48.008;10.882;2023-07-20T15:05:26;27.00;80.70
32476;DHT22;18929;48.008;10.882;2023-07-20T15:07:53;27.70;79.50
32476;DHT22;18929;48.008;10.882;2023-07-20T15:10:20;28.10;77.50
32476;DHT22;18929;48.008;10.882;2023-07-20T15:12:47;27.90;76.60
32476;DHT22;18929;48.008;10.882;2023-07-20T15:15:14;26.20;76.00
32476;DHT22;18929;48.008;10.882;2023-07-20T15:17:43;25.50;77.30
32476;DHT22;18929;48.008;10.882;2023-07-20T15:20:12;25.60;76.10
32476;DHT22;18929;48.008;10.882;2023-07-20T15:22:39;26.60;81.80
32476;DHT22;18929;48.008;10.882;2023-07-20T15:25:07;27.70;80.00
32476;DHT22;18929;48.008;10.882;2023-07-20T15:27:36;26.40;76.90
32476;DHT22;18929;48.008;10.882;2023-07-20T15:30:03;25.10;78.10
32476;DHT22;18929;48.008;10.882;2023-07-20T15:32:30;25.10;79.50
32476;DHT22;18929;48.008;10.882;2023-07-20T15:34:56;26.10;76.50
32476;DHT22;18929;48.008;10.882;2023-07-20T15:37:25;26.20;77.20
32476;DHT22;18929;48.008;10.882;2023-07-20T15:39:51;25.30;79.20
32476;DHT22;18929;48.008;10.882;2023-07-20T15:42:18;25.90;80.50
32476;DHT22;18929;48.008;10.882;2023-07-20T15:44:45;27.00;81.20
32476;DHT22;18929;48.008;10.882;2023-07-20T15:47:14;27.50;75.40
32476;DHT22;18929;48.008;10.882;2023-07-20T15:49:40;26.60;81.60
32476;DHT22;18929;48.008;10.882;2023-07-20T15:52:08;26.60;81.00
32476;DHT22;18929;48.008;10.882;2023-07-20T15:54:37;26.50;82.40
32476;DHT22;18929;48.008;10.882;2023-07-20T15:57:05;27.00;80.80
32476;DHT22;18929;48.008;10.882;2023-07-20T15:59:33;26.90;77.10
32476;DHT22;18929;48.008;10.882;2023-07-20T16:02:00;27.30;77.70
32476;DHT22;18929;48.008;10.882;2023-07-20T16:04:29;27.70;77.90
32476;DHT22;18929;48.008;10.882;2023-07-20T16:06:56;27.00;80.80
32476;DHT22;18929;48.008;10.882;2023-07-20T16:09:23;28.00;79.40
32476;DHT22;18929;48.008;10.882;2023-07-20T16:11:51;28.80;77.10
32476;DHT22;18929;48.008;10.882;2023-07-20T16:14:18;28.80;77.10
32476;DHT22;18929;48.008;10.882;2023-07-20T16:16:44;28.30;74.00
32476;DHT22;18929;48.008;10.882;2023-07-20T16:19:11;26.70;74.30
32476;DHT22;18929;48.008;10.882;2023-07-20T16:21:38;26.40;82.00
32476;DHT22;18929;48.008;10.882;2023-07-20T16:24:05;25.80;79.80
32476;DHT22;18929;48.008;10.882;2023-07-20T16:26:32;26.40;78.10